sensor_id;sensor_type;location;lat;lon;timestamp;temperature;humidity
21778;DHT22;11050;52.222;20.916;2022-12-29T00:01:37;6.20;99.90
21778;DHT22;11050;52.222;20.916;2022-12-29T00:04:03;6.20;99.90
21778;DHT22;11050;52.222;20.916;2022-12-29T00:06:30;6.20;99.90
21778;DHT22;11050;52.222;20.916;2022-12-29T00:08:56;6.20;99.90
21778;DHT22;11050;52.222;20.916;2022-12-29T00:11:24;6.20;99.90
21778;DHT22;11050;52.222;20.916;2022-12-29T00:13:52;6.20;99.90
21778;DHT22;11050;52.222;20.916;2022-12-29T00:16:40;6.20;99.90
21778;DHT22;11050;52.222;20.916;2022-12-29T00:19:08;6.20;99.90
21778;DHT22;11050;52.222;20.916;2022-12-29T00:21:54;6.20;99.90
21778;DHT22;11050;52.222;20.916;2022-12-29T00:24:38;6.20;99.90
21778;DHT22;11050;52.222;20.916;2022-12-29T00:27:22;6.30;99.90
21778;DHT22;11050;52.222;20.916;2022-12-29T00:30:12;6.20;99.90
21778;DHT22;11050;52.222;20.916;2022-12-29T00:32:57;6.20;99.90
21778;DHT22;11050;52.222;20.916;2022-12-29T00:35:53;6.20;99.90
21778;DHT22;11050;52.222;20.916;2022-12-29T00:38:25;6.20;99.90
21778;DHT22;11050;52.222;20.916;2022-12-29T00:41:10;6.20;99.90
21778;DHT22;11050;52.222;20.916;2022-12-29T00:43:54;6.20;99.90
21778;DHT22;11050;52.222;20.916;2022-12-29T00:46:33;6.20;99.90
21778;DHT22;11050;52.222;20.916;2022-12-29T00:49:01;6.20;99.90
21778;DHT22;11050;52.222;20.916;2022-12-29T00:51:46;6.20;99.90
21778;DHT22;11050;52.222;20.916;2022-12-29T00:54:13;6.30;99.90
21778;DHT22;11050;52.222;20.916;2022-12-29T00:56:39;6.20;99.90
21778;DHT22;11050;52.222;20.916;2022-12-29T00:59:08;6.30;99.90
21778;DHT22;11050;52.222;20.916;2022-12-29T01:01:36;6.30;99.90
21778;DHT22;11050;52.222;20.916;2022-12-29T01:04:03;6.30;99.90
21778;DHT22;11050;52.222;20.916;2022-12-29T01:06:30;6.30;99.90
21778;DHT22;11050;52.222;20.916;2022-12-29T01:08:56;6.30;99.90
21778;DHT22;11050;52.222;20.916;2022-12-29T01:11:41;6.40;99.90
21778;DHT22;11050;52.222;20.916;2022-12-29T01:14:06;6.40;99.90
21778;DHT22;11050;52.222;20.916;2022-12-29T01:16:33;6.40;99.90
21778;DHT22;11050;52.222;20.916;2022-12-29T01:18:59;6.40;99.90
21778;DHT22;11050;52.222;20.916;2022-12-29T01:21:25;6.50;99.90
21778;DHT22;11050;52.222;20.916;2022-12-29T01:23:51;6.40;99.90
21778;DHT22;11050;52.222;20.916;2022-12-29T01:26:17;6.50;99.90
21778;DHT22;11050;52.222;20.916;2022-12-29T01:28:43;6.40;99.90
21778;DHT22;11050;52.222;20.916;2022-12-29T01:31:11;6.40;99.90
21778;DHT22;11050;52.222;20.916;2022-12-29T01:33:38;6.40;99.90
21778;DHT22;11050;52.222;20.916;2022-12-29T01:36:06;6.40;99.90
21778;DHT22;11050;52.222;20.916;2022-12-29T01:38:34;6.40;99.90
21778;DHT22;11050;52.222;20.916;2022-12-29T01:41:02;6.40;99.90
21778;DHT22;11050;52.222;20.916;2022-12-29T01:43:42;6.40;99.90
21778;DHT22;11050;52.222;20.916;2022-12-29T01:49:23;6.30;99.90
21778;DHT22;11050;52.222;20.916;2022-12-29T01:51:55;6.30;99.90
21778;DHT22;11050;52.222;20.916;2022-12-29T01:54:29;6.30;99.90
21778;DHT22;11050;52.222;20.916;2022-12-29T01:56:57;6.30;99.90
21778;DHT22;11050;52.222;20.916;2022-12-29T01:59:34;6.20;99.90
21778;DHT22;11050;52.222;20.916;2022-12-29T02:02:05;6.20;99.90
21778;DHT22;11050;52.222;20.916;2022-12-29T02:04:32;6.20;99.90
21778;DHT22;11050;52.222;20.916;2022-12-29T02:07:03;6.20;99.90
21778;DHT22;11050;52.222;20.916;2022-12-29T02:09:32;6.20;99.90
21778;DHT22;11050;52.222;20.916;2022-12-29T02:11:58;6.10;99.90
21778;DHT22;11050;52.222;20.916;2022-12-29T02:14:25;6.20;99.90
21778;DHT22;11050;52.222;20.916;2022-12-29T02:17:04;6.10;99.90
21778;DHT22;11050;52.222;20.916;2022-12-29T02:31:13;6.00;99.90
21778;DHT22;11050;52.222;20.916;2022-12-29T02:34:17;5.90;99.90
21778;DHT22;11050;52.222;20.916;2022-12-29T02:40:29;5.80;99.90
21778;DHT22;11050;52.222;20.916;2022-12-29T02:45:56;5.70;99.90
21778;DHT22;11050;52.222;20.916;2022-12-29T02:49:19;5.70;99.90
21778;DHT22;11050;52.222;20.916;2022-12-29T02:51:53;5.70;99.90
21778;DHT22;11050;52.222;20.916;2022-12-29T02:54:23;5.60;99.90
21778;DHT22;11050;52.222;20.916;2022-12-29T02:57:14;5.60;99.90
21778;DHT22;11050;52.222;20.916;2022-12-29T03:00:10;5.50;99.90
21778;DHT22;11050;52.222;20.916;2022-12-29T03:03:20;5.50;99.90
21778;DHT22;11050;52.222;20.916;2022-12-29T03:09:14;5.30;99.90
21778;DHT22;11050;52.222;20.916;2022-12-29T03:11:58;5.30;99.90
21778;DHT22;11050;52.222;20.916;2022-12-29T03:14:59;5.30;99.90
21778;DHT22;11050;52.222;20.916;2022-12-29T03:17:59;5.20;99.90
21778;DHT22;11050;52.222;20.916;2022-12-29T03:21:05;5.20;99.90
21778;DHT22;11050;52.222;20.916;2022-12-29T03:23:37;5.10;99.90
21778;DHT22;11050;52.222;20.916;2022-12-29T03:26:10;5.10;99.90
21778;DHT22;11050;52.222;20.916;2022-12-29T03:28:46;5.10;99.90
21778;DHT22;11050;52.222;20.916;2022-12-29T03:31:19;5.00;99.90
21778;DHT22;11050;52.222;20.916;2022-12-29T03:33:47;5.00;99.90
21778;DHT22;11050;52.222;20.916;2022-12-29T03:36:26;5.00;99.90
21778;DHT22;11050;52.222;20.916;2022-12-29T03:39:08;5.00;99.90
21778;DHT22;11050;52.222;20.916;2022-12-29T03:41:42;5.00;99.90
21778;DHT22;11050;52.222;20.916;2022-12-29T03:44:11;4.90;99.90
21778;DHT22;11050;52.222;20.916;2022-12-29T03:46:38;4.90;99.90
21778;DHT22;11050;52.222;20.916;2022-12-29T03:49:04;4.90;99.90
21778;DHT22;11050;52.222;20.916;2022-12-29T03:51:29;4.80;99.90
21778;DHT22;11050;52.222;20.916;2022-12-29T03:53:55;4.80;99.90
21778;DHT22;11050;52.222;20.916;2022-12-29T03:56:21;4.80;99.90
21778;DHT22;11050;52.222;20.916;2022-12-29T03:58:46;4.80;99.90
21778;DHT22;11050;52.222;20.916;2022-12-29T04:01:12;4.70;99.90
21778;DHT22;11050;52.222;20.916;2022-12-29T04:03:38;4.70;99.90
21778;DHT22;11050;52.222;20.916;2022-12-29T04:06:04;4.70;99.90
21778;DHT22;11050;52.222;20.916;2022-12-29T04:08:30;4.70;99.90
21778;DHT22;11050;52.222;20.916;2022-12-29T04:10:55;4.70;99.90
21778;DHT22;11050;52.222;20.916;2022-12-29T04:13:21;4.60;99.90
21778;DHT22;11050;52.222;20.916;2022-12-29T04:15:47;4.60;99.90
21778;DHT22;11050;52.222;20.916;2022-12-29T04:18:13;4.60;99.90
21778;DHT22;11050;52.222;20.916;2022-12-29T04:20:38;4.60;99.90
21778;DHT22;11050;52.222;20.916;2022-12-29T04:23:23;4.50;99.90
21778;DHT22;11050;52.222;20.916;2022-12-29T04:25:48;4.50;99.90
21778;DHT22;11050;52.222;20.916;2022-12-29T04:28:15;4.50;99.90
21778;DHT22;11050;52.222;20.916;2022-12-29T04:30:43;4.50;99.90
21778;DHT22;11050;52.222;20.916;2022-12-29T04:33:09;4.50;99.90
21778;DHT22;11050;52.222;20.916;2022-12-29T04:35:35;4.50;99.90
21778;DHT22;11050;52.222;20.916;2022-12-29T04:38:01;4.50;99.90
21778;DHT22;11050;52.222;20.916;2022-12-29T04:40:28;4.50;99.90
21778;DHT22;11050;52.222;20.916;2022-12-29T04:42:54;4.40;99.90
21778;DHT22;11050;52.222;20.916;2022-12-29T04:45:20;4.40;99.90
21778;DHT22;11050;52.222;20.916;2022-12-29T04:47:45;4.40;99.90
21778;DHT22;11050;52.222;20.916;2022-12-29T04:50:11;4.40;99.90
21778;DHT22;11050;52.222;20.916;2022-12-29T04:52:37;4.40;99.90
21778;DHT22;11050;52.222;20.916;2022-12-29T04:55:04;4.40;99.90
21778;DHT22;11050;52.222;20.916;2022-12-29T04:57:30;4.40;99.90
21778;DHT22;11050;52.222;20.916;2022-12-29T04:59:56;4.40;99.90
21778;DHT22;11050;52.222;20.916;2022-12-29T05:02:22;4.40;99.90
21778;DHT22;11050;52.222;20.916;2022-12-29T05:04:48;4.40;99.90
21778;DHT22;11050;52.222;20.916;2022-12-29T05:07:14;4.40;99.90
21778;DHT22;11050;52.222;20.916;2022-12-29T05:09:40;4.40;99.90
21778;DHT22;11050;52.222;20.916;2022-12-29T05:12:06;4.40;99.90
21778;DHT22;11050;52.222;20.916;2022-12-29T05:14:31;4.40;99.90
21778;DHT22;11050;52.222;20.916;2022-12-29T05:16:57;4.50;99.90
21778;DHT22;11050;52.222;20.916;2022-12-29T05:19:23;4.50;99.90
21778;DHT22;11050;52.222;20.916;2022-12-29T05:21:48;4.50;99.90
21778;DHT22;11050;52.222;20.916;2022-12-29T05:24:14;4.50;99.90
21778;DHT22;11050;52.222;20.916;2022-12-29T05:26:40;4.50;99.90
21778;DHT22;11050;52.222;20.916;2022-12-29T05:29:06;4.50;99.90
21778;DHT22;11050;52.222;20.916;2022-12-29T05:31:33;4.50;99.90
21778;DHT22;11050;52.222;20.916;2022-12-29T05:34:01;4.50;99.90
21778;DHT22;11050;52.222;20.916;2022-12-29T05:36:27;4.50;99.90
21778;DHT22;11050;52.222;20.916;2022-12-29T05:38:53;4.50;99.90
21778;DHT22;11050;52.222;20.916;2022-12-29T05:41:18;4.50;99.90
21778;DHT22;11050;52.222;20.916;2022-12-29T05:43:44;4.50;99.90
21778;DHT22;11050;52.222;20.916;2022-12-29T05:46:10;4.50;99.90
21778;DHT22;11050;52.222;20.916;2022-12-29T05:48:36;4.50;99.90
21778;DHT22;11050;52.222;20.916;2022-12-29T05:51:02;4.50;99.90
21778;DHT22;11050;52.222;20.916;2022-12-29T05:53:27;4.50;99.90
21778;DHT22;11050;52.222;20.916;2022-12-29T05:55:53;4.50;99.90
21778;DHT22;11050;52.222;20.916;2022-12-29T05:58:19;4.50;99.90
21778;DHT22;11050;52.222;20.916;2022-12-29T06:00:44;4.50;99.90
21778;DHT22;11050;52.222;20.916;2022-12-29T06:03:10;4.60;99.90
21778;DHT22;11050;52.222;20.916;2022-12-29T06:05:36;4.60;99.90
21778;DHT22;11050;52.222;20.916;2022-12-29T06:08:02;4.60;99.90
21778;DHT22;11050;52.222;20.916;2022-12-29T06:10:28;4.60;99.90
21778;DHT22;11050;52.222;20.916;2022-12-29T06:12:54;4.60;99.90
21778;DHT22;11050;52.222;20.916;2022-12-29T06:15:20;4.60;99.90
21778;DHT22;11050;52.222;20.916;2022-12-29T06:17:46;4.70;99.90
21778;DHT22;11050;52.222;20.916;2022-12-29T06:20:11;4.70;99.90
21778;DHT22;11050;52.222;20.916;2022-12-29T06:22:38;4.70;99.90
21778;DHT22;11050;52.222;20.916;2022-12-29T06:25:04;4.70;99.90
21778;DHT22;11050;52.222;20.916;2022-12-29T06:27:30;4.70;99.90
21778;DHT22;11050;52.222;20.916;2022-12-29T06:29:56;4.80;99.90
21778;DHT22;11050;52.222;20.916;2022-12-29T06:32:22;4.80;99.90
21778;DHT22;11050;52.222;20.916;2022-12-29T06:34:47;4.80;99.90
21778;DHT22;11050;52.222;20.916;2022-12-29T06:37:13;4.80;99.90
21778;DHT22;11050;52.222;20.916;2022-12-29T06:39:40;4.80;99.90
21778;DHT22;11050;52.222;20.916;2022-12-29T06:42:06;4.80;99.90
21778;DHT22;11050;52.222;20.916;2022-12-29T06:44:31;4.90;99.90
21778;DHT22;11050;52.222;20.916;2022-12-29T06:46:57;4.90;99.90
21778;DHT22;11050;52.222;20.916;2022-12-29T06:49:23;4.90;99.90
21778;DHT22;11050;52.222;20.916;2022-12-29T06:51:48;4.90;99.90
21778;DHT22;11050;52.222;20.916;2022-12-29T06:54:14;4.90;99.90
21778;DHT22;11050;52.222;20.916;2022-12-29T06:56:40;4.90;99.90
21778;DHT22;11050;52.222;20.916;2022-12-29T06:59:06;4.90;99.90
21778;DHT22;11050;52.222;20.916;2022-12-29T07:01:32;5.00;99.90
21778;DHT22;11050;52.222;20.916;2022-12-29T07:03:58;5.00;99.90
21778;DHT22;11050;52.222;20.916;2022-12-29T07:06:24;5.00;99.90
21778;DHT22;11050;52.222;20.916;2022-12-29T07:08:49;5.00;99.90
21778;DHT22;11050;52.222;20.916;2022-12-29T07:11:15;5.10;99.90
21778;DHT22;11050;52.222;20.916;2022-12-29T07:13:41;5.10;99.90
21778;DHT22;11050;52.222;20.916;2022-12-29T07:16:10;5.10;99.90
21778;DHT22;11050;52.222;20.916;2022-12-29T07:18:35;5.10;99.90
21778;DHT22;11050;52.222;20.916;2022-12-29T07:21:02;5.20;99.90
21778;DHT22;11050;52.222;20.916;2022-12-29T07:23:29;5.20;99.90
21778;DHT22;11050;52.222;20.916;2022-12-29T07:26:02;5.20;99.90
21778;DHT22;11050;52.222;20.916;2022-12-29T07:28:29;5.20;99.90
21778;DHT22;11050;52.222;20.916;2022-12-29T07:30:55;5.30;99.90
21778;DHT22;11050;52.222;20.916;2022-12-29T07:33:20;5.30;99.90
21778;DHT22;11050;52.222;20.916;2022-12-29T07:35:46;5.40;99.90
21778;DHT22;11050;52.222;20.916;2022-12-29T07:38:12;5.40;99.90
21778;DHT22;11050;52.222;20.916;2022-12-29T07:40:38;5.40;99.90
21778;DHT22;11050;52.222;20.916;2022-12-29T07:43:03;5.50;99.90
21778;DHT22;11050;52.222;20.916;2022-12-29T07:45:30;5.50;99.90
21778;DHT22;11050;52.222;20.916;2022-12-29T07:47:55;5.60;99.90
21778;DHT22;11050;52.222;20.916;2022-12-29T07:50:21;5.60;99.90
21778;DHT22;11050;52.222;20.916;2022-12-29T07:52:47;5.70;99.90
21778;DHT22;11050;52.222;20.916;2022-12-29T07:55:14;5.70;99.90
21778;DHT22;11050;52.222;20.916;2022-12-29T07:57:41;5.70;99.90
21778;DHT22;11050;52.222;20.916;2022-12-29T08:00:07;5.70;99.90
21778;DHT22;11050;52.222;20.916;2022-12-29T08:02:35;5.80;99.90
21778;DHT22;11050;52.222;20.916;2022-12-29T08:05:01;5.80;99.90
21778;DHT22;11050;52.222;20.916;2022-12-29T08:07:27;5.80;99.90
21778;DHT22;11050;52.222;20.916;2022-12-29T08:09:52;5.90;99.90
21778;DHT22;11050;52.222;20.916;2022-12-29T08:12:18;5.90;99.90
21778;DHT22;11050;52.222;20.916;2022-12-29T08:14:44;6.00;99.90
21778;DHT22;11050;52.222;20.916;2022-12-29T08:17:10;6.00;99.90
21778;DHT22;11050;52.222;20.916;2022-12-29T08:19:36;6.10;99.90
21778;DHT22;11050;52.222;20.916;2022-12-29T08:22:02;6.10;99.90
21778;DHT22;11050;52.222;20.916;2022-12-29T08:24:28;6.20;99.90
21778;DHT22;11050;52.222;20.916;2022-12-29T08:26:54;6.20;99.90
21778;DHT22;11050;52.222;20.916;2022-12-29T08:29:19;6.30;99.90
21778;DHT22;11050;52.222;20.916;2022-12-29T08:31:47;6.30;99.90
21778;DHT22;11050;52.222;20.916;2022-12-29T08:34:13;6.40;99.90
21778;DHT22;11050;52.222;20.916;2022-12-29T08:36:39;6.40;99.90
21778;DHT22;11050;52.222;20.916;2022-12-29T08:39:05;6.50;99.90
21778;DHT22;11050;52.222;20.916;2022-12-29T08:41:30;6.60;99.90
21778;DHT22;11050;52.222;20.916;2022-12-29T08:43:56;6.60;99.90
21778;DHT22;11050;52.222;20.916;2022-12-29T08:46:22;6.70;99.90
21778;DHT22;11050;52.222;20.916;2022-12-29T08:48:48;6.70;99.90
21778;DHT22;11050;52.222;20.916;2022-12-29T08:51:13;6.80;99.90
21778;DHT22;11050;52.222;20.916;2022-12-29T08:53:39;6.80;99.90
21778;DHT22;11050;52.222;20.916;2022-12-29T08:56:05;6.80;99.90
21778;DHT22;11050;52.222;20.916;2022-12-29T08:58:32;6.90;99.90
21778;DHT22;11050;52.222;20.916;2022-12-29T09:00:58;6.90;99.90
21778;DHT22;11050;52.222;20.916;2022-12-29T09:03:24;7.00;99.90
21778;DHT22;11050;52.222;20.916;2022-12-29T09:05:51;7.00;99.90
21778;DHT22;11050;52.222;20.916;2022-12-29T09:08:18;7.10;99.90
21778;DHT22;11050;52.222;20.916;2022-12-29T09:10:45;7.10;99.90
21778;DHT22;11050;52.222;20.916;2022-12-29T09:13:12;7.10;99.90
21778;DHT22;11050;52.222;20.916;2022-12-29T09:15:39;7.20;99.90
21778;DHT22;11050;52.222;20.916;2022-12-29T09:18:06;7.30;99.90
21778;DHT22;11050;52.222;20.916;2022-12-29T09:20:33;7.30;99.90
21778;DHT22;11050;52.222;20.916;2022-12-29T09:22:59;7.40;99.90
21778;DHT22;11050;52.222;20.916;2022-12-29T09:25:25;7.50;99.90
21778;DHT22;11050;52.222;20.916;2022-12-29T09:27:52;7.50;99.90
21778;DHT22;11050;52.222;20.916;2022-12-29T09:30:19;7.60;99.90
21778;DHT22;11050;52.222;20.916;2022-12-29T09:32:47;7.70;99.90
21778;DHT22;11050;52.222;20.916;2022-12-29T09:35:14;7.70;99.90
21778;DHT22;11050;52.222;20.916;2022-12-29T09:37:42;7.70;99.90
21778;DHT22;11050;52.222;20.916;2022-12-29T09:40:24;7.70;99.90
21778;DHT22;11050;52.222;20.916;2022-12-29T09:48:47;7.70;99.90
21778;DHT22;11050;52.222;20.916;2022-12-29T09:51:23;7.70;99.90
21778;DHT22;11050;52.222;20.916;2022-12-29T09:53:56;7.70;99.90
21778;DHT22;11050;52.222;20.916;2022-12-29T09:56:26;7.80;99.90
21778;DHT22;11050;52.222;20.916;2022-12-29T09:59:04;7.80;99.90
21778;DHT22;11050;52.222;20.916;2022-12-29T10:01:46;7.80;99.90
21778;DHT22;11050;52.222;20.916;2022-12-29T10:04:18;7.80;99.90
21778;DHT22;11050;52.222;20.916;2022-12-29T10:07:17;7.80;99.90
21778;DHT22;11050;52.222;20.916;2022-12-29T10:13:10;7.80;99.90
21778;DHT22;11050;52.222;20.916;2022-12-29T10:15:54;7.80;99.90
21778;DHT22;11050;52.222;20.916;2022-12-29T10:21:37;7.80;99.90
21778;DHT22;11050;52.222;20.916;2022-12-29T10:24:31;7.80;99.90
21778;DHT22;11050;52.222;20.916;2022-12-29T10:26:59;7.80;99.90
21778;DHT22;11050;52.222;20.916;2022-12-29T10:29:33;7.80;99.90
21778;DHT22;11050;52.222;20.916;2022-12-29T10:32:13;7.80;99.90
21778;DHT22;11050;52.222;20.916;2022-12-29T10:34:58;7.80;99.90
21778;DHT22;11050;52.222;20.916;2022-12-29T10:40:56;7.80;99.90
21778;DHT22;11050;52.222;20.916;2022-12-29T10:43:26;7.90;99.90
21778;DHT22;11050;52.222;20.916;2022-12-29T10:45:58;7.90;99.90
21778;DHT22;11050;52.222;20.916;2022-12-29T10:48:31;8.00;99.90
21778;DHT22;11050;52.222;20.916;2022-12-29T10:51:02;8.00;99.90
21778;DHT22;11050;52.222;20.916;2022-12-29T10:53:40;8.10;99.90
21778;DHT22;11050;52.222;20.916;2022-12-29T10:59:01;8.10;99.90
21778;DHT22;11050;52.222;20.916;2022-12-29T11:02:13;8.20;99.90
21778;DHT22;11050;52.222;20.916;2022-12-29T11:08:03;8.30;99.90
21778;DHT22;11050;52.222;20.916;2022-12-29T11:10:40;8.40;99.90
21778;DHT22;11050;52.222;20.916;2022-12-29T11:13:19;8.40;99.90
21778;DHT22;11050;52.222;20.916;2022-12-29T11:15:51;8.50;99.90
21778;DHT22;11050;52.222;20.916;2022-12-29T11:20:59;8.50;99.90
21778;DHT22;11050;52.222;20.916;2022-12-29T11:26:22;8.60;99.90
21778;DHT22;11050;52.222;20.916;2022-12-29T11:31:40;8.60;99.90
21778;DHT22;11050;52.222;20.916;2022-12-29T11:34:25;8.60;99.90
21778;DHT22;11050;52.222;20.916;2022-12-29T11:36:54;8.60;99.90
21778;DHT22;11050;52.222;20.916;2022-12-29T11:42:56;8.60;99.90
21778;DHT22;11050;52.222;20.916;2022-12-29T11:45:35;8.60;99.90
21778;DHT22;11050;52.222;20.916;2022-12-29T11:48:15;8.70;99.90
21778;DHT22;11050;52.222;20.916;2022-12-29T11:50:50;8.70;99.90
21778;DHT22;11050;52.222;20.916;2022-12-29T11:53:27;8.70;99.90
21778;DHT22;11050;52.222;20.916;2022-12-29T11:56:04;8.70;99.90
21778;DHT22;11050;52.222;20.916;2022-12-29T11:58:36;8.70;99.90
21778;DHT22;11050;52.222;20.916;2022-12-29T12:01:35;8.70;99.90
21778;DHT22;11050;52.222;20.916;2022-12-29T12:04:13;8.70;99.90
21778;DHT22;11050;52.222;20.916;2022-12-29T12:09:51;8.80;99.90
21778;DHT22;11050;52.222;20.916;2022-12-29T12:12:34;8.80;99.90
21778;DHT22;11050;52.222;20.916;2022-12-29T12:15:12;8.80;99.90
21778;DHT22;11050;52.222;20.916;2022-12-29T12:17:55;8.90;99.90
21778;DHT22;11050;52.222;20.916;2022-12-29T12:26:41;9.00;99.90
21778;DHT22;11050;52.222;20.916;2022-12-29T12:29:50;9.00;99.90
21778;DHT22;11050;52.222;20.916;2022-12-29T12:32:53;9.10;99.90
21778;DHT22;11050;52.222;20.916;2022-12-29T12:38:34;9.10;99.90
21778;DHT22;11050;52.222;20.916;2022-12-29T12:47:44;9.20;99.90
21778;DHT22;11050;52.222;20.916;2022-12-29T12:53:26;9.30;99.90
21778;DHT22;11050;52.222;20.916;2022-12-29T12:56:20;9.30;99.90
21778;DHT22;11050;52.222;20.916;2022-12-29T13:05:09;9.40;99.80
21778;DHT22;11050;52.222;20.916;2022-12-29T13:14:11;9.40;99.70
21778;DHT22;11050;52.222;20.916;2022-12-29T13:17:05;9.40;99.60
21778;DHT22;11050;52.222;20.916;2022-12-29T13:22:28;9.50;99.90
21778;DHT22;11050;52.222;20.916;2022-12-29T13:25:24;9.50;99.90
21778;DHT22;11050;52.222;20.916;2022-12-29T13:28:10;9.40;99.90
21778;DHT22;11050;52.222;20.916;2022-12-29T13:38:54;9.40;99.90
21778;DHT22;11050;52.222;20.916;2022-12-29T13:41:44;9.50;99.90
21778;DHT22;11050;52.222;20.916;2022-12-29T13:44:20;9.50;99.90
21778;DHT22;11050;52.222;20.916;2022-12-29T13:46:49;9.50;99.90
21778;DHT22;11050;52.222;20.916;2022-12-29T13:49:19;9.50;99.90
21778;DHT22;11050;52.222;20.916;2022-12-29T13:51:59;9.50;99.90
21778;DHT22;11050;52.222;20.916;2022-12-29T13:57:51;9.50;99.90
21778;DHT22;11050;52.222;20.916;2022-12-29T14:00:28;9.50;99.90
21778;DHT22;11050;52.222;20.916;2022-12-29T14:03:23;9.50;99.70
21778;DHT22;11050;52.222;20.916;2022-12-29T14:06:19;9.50;99.60
21778;DHT22;11050;52.222;20.916;2022-12-29T14:08:58;9.50;99.60
21778;DHT22;11050;52.222;20.916;2022-12-29T14:11:32;9.50;99.50
21778;DHT22;11050;52.222;20.916;2022-12-29T14:14:25;9.50;99.40
21778;DHT22;11050;52.222;20.916;2022-12-29T14:17:09;9.50;99.40
21778;DHT22;11050;52.222;20.916;2022-12-29T14:19:39;9.50;99.30
21778;DHT22;11050;52.222;20.916;2022-12-29T14:22:10;9.50;99.20
21778;DHT22;11050;52.222;20.916;2022-12-29T14:24:45;9.50;99.20
21778;DHT22;11050;52.222;20.916;2022-12-29T14:38:14;9.40;99.20
21778;DHT22;11050;52.222;20.916;2022-12-29T14:40:42;9.40;99.50
21778;DHT22;11050;52.222;20.916;2022-12-29T14:43:23;9.40;99.40
21778;DHT22;11050;52.222;20.916;2022-12-29T14:46:00;9.40;99.30
21778;DHT22;11050;52.222;20.916;2022-12-29T14:48:32;9.40;99.40
21778;DHT22;11050;52.222;20.916;2022-12-29T14:51:01;9.40;99.40
21778;DHT22;11050;52.222;20.916;2022-12-29T14:53:50;9.40;99.50
21778;DHT22;11050;52.222;20.916;2022-12-29T14:56:19;9.40;99.50
21778;DHT22;11050;52.222;20.916;2022-12-29T14:58:56;9.40;99.50
21778;DHT22;11050;52.222;20.916;2022-12-29T15:01:46;9.40;99.70
21778;DHT22;11050;52.222;20.916;2022-12-29T15:04:21;9.40;99.90
21778;DHT22;11050;52.222;20.916;2022-12-29T15:06:59;9.40;99.80
21778;DHT22;11050;52.222;20.916;2022-12-29T15:09:35;9.40;99.80
21778;DHT22;11050;52.222;20.916;2022-12-29T15:14:54;9.30;99.90
21778;DHT22;11050;52.222;20.916;2022-12-29T15:17:30;9.30;99.90
21778;DHT22;11050;52.222;20.916;2022-12-29T15:20:00;9.20;99.90
21778;DHT22;11050;52.222;20.916;2022-12-29T15:22:54;9.20;99.90
21778;DHT22;11050;52.222;20.916;2022-12-29T15:25:21;9.20;99.90
21778;DHT22;11050;52.222;20.916;2022-12-29T15:28:00;9.10;99.90
21778;DHT22;11050;52.222;20.916;2022-12-29T15:30:27;9.20;99.90
21778;DHT22;11050;52.222;20.916;2022-12-29T15:32:53;9.20;99.90
21778;DHT22;11050;52.222;20.916;2022-12-29T15:35:35;9.20;99.90
21778;DHT22;11050;52.222;20.916;2022-12-29T15:38:14;9.20;99.90
21778;DHT22;11050;52.222;20.916;2022-12-29T15:40:44;9.10;99.90
21778;DHT22;11050;52.222;20.916;2022-12-29T15:46:01;9.10;99.90
21778;DHT22;11050;52.222;20.916;2022-12-29T15:48:28;9.00;99.90
21778;DHT22;11050;52.222;20.916;2022-12-29T15:50:55;9.00;99.90
21778;DHT22;11050;52.222;20.916;2022-12-29T15:53:24;8.90;99.90
21778;DHT22;11050;52.222;20.916;2022-12-29T15:55:57;8.90;99.90
21778;DHT22;11050;52.222;20.916;2022-12-29T15:58:47;8.90;99.90
21778;DHT22;11050;52.222;20.916;2022-12-29T16:04:00;8.80;99.90
21778;DHT22;11050;52.222;20.916;2022-12-29T16:06:39;8.70;99.90
21778;DHT22;11050;52.222;20.916;2022-12-29T16:09:18;8.70;99.90
21778;DHT22;11050;52.222;20.916;2022-12-29T16:11:55;8.70;99.90
21778;DHT22;11050;52.222;20.916;2022-12-29T16:14:37;8.70;99.90
21778;DHT22;11050;52.222;20.916;2022-12-29T16:17:12;8.60;99.90
21778;DHT22;11050;52.222;20.916;2022-12-29T16:19:42;8.60;99.90
21778;DHT22;11050;52.222;20.916;2022-12-29T16:24:58;8.60;99.90
21778;DHT22;11050;52.222;20.916;2022-12-29T16:27:40;8.50;99.90
21778;DHT22;11050;52.222;20.916;2022-12-29T16:30:20;8.50;99.90
21778;DHT22;11050;52.222;20.916;2022-12-29T16:32:59;8.50;99.90
21778;DHT22;11050;52.222;20.916;2022-12-29T16:35:28;8.50;99.90
21778;DHT22;11050;52.222;20.916;2022-12-29T16:38:17;8.50;99.90
21778;DHT22;11050;52.222;20.916;2022-12-29T16:41:00;8.50;99.90
21778;DHT22;11050;52.222;20.916;2022-12-29T16:43:34;8.40;99.90
21778;DHT22;11050;52.222;20.916;2022-12-29T16:48:53;8.50;99.90
21778;DHT22;11050;52.222;20.916;2022-12-29T16:51:30;8.50;99.90
21778;DHT22;11050;52.222;20.916;2022-12-29T16:53:59;8.60;99.90
21778;DHT22;11050;52.222;20.916;2022-12-29T16:56:32;8.70;99.90
21778;DHT22;11050;52.222;20.916;2022-12-29T16:59:16;8.70;99.90
21778;DHT22;11050;52.222;20.916;2022-12-29T17:01:51;8.80;99.90
21778;DHT22;11050;52.222;20.916;2022-12-29T17:04:16;8.80;99.90
21778;DHT22;11050;52.222;20.916;2022-12-29T17:06:42;8.90;99.90
21778;DHT22;11050;52.222;20.916;2022-12-29T17:09:22;8.90;99.90
21778;DHT22;11050;52.222;20.916;2022-12-29T17:11:52;9.00;99.90
21778;DHT22;11050;52.222;20.916;2022-12-29T17:14:39;9.10;99.90
21778;DHT22;11050;52.222;20.916;2022-12-29T17:20:17;9.10;99.90
21778;DHT22;11050;52.222;20.916;2022-12-29T17:22:47;9.20;99.90
21778;DHT22;11050;52.222;20.916;2022-12-29T17:25:16;9.20;99.90
21778;DHT22;11050;52.222;20.916;2022-12-29T17:27:58;9.20;99.90
21778;DHT22;11050;52.222;20.916;2022-12-29T17:30:28;9.20;99.90
21778;DHT22;11050;52.222;20.916;2022-12-29T17:33:03;9.20;99.90
21778;DHT22;11050;52.222;20.916;2022-12-29T17:35:33;9.20;99.90
21778;DHT22;11050;52.222;20.916;2022-12-29T17:37:59;9.20;99.90
21778;DHT22;11050;52.222;20.916;2022-12-29T17:40:31;9.10;99.90
21778;DHT22;11050;52.222;20.916;2022-12-29T17:42:58;9.10;99.90
21778;DHT22;11050;52.222;20.916;2022-12-29T17:45:30;9.10;99.90
21778;DHT22;11050;52.222;20.916;2022-12-29T17:47:58;9.10;99.90
21778;DHT22;11050;52.222;20.916;2022-12-29T17:50:27;9.10;99.90
21778;DHT22;11050;52.222;20.916;2022-12-29T17:53:01;9.10;99.90
21778;DHT22;11050;52.222;20.916;2022-12-29T17:55:29;9.10;99.90
21778;DHT22;11050;52.222;20.916;2022-12-29T17:57:55;9.10;99.90
21778;DHT22;11050;52.222;20.916;2022-12-29T18:00:27;9.00;99.90
21778;DHT22;11050;52.222;20.916;2022-12-29T18:02:56;9.00;99.90
21778;DHT22;11050;52.222;20.916;2022-12-29T18:05:28;9.00;99.90
21778;DHT22;11050;52.222;20.916;2022-12-29T18:07:57;9.00;99.90
21778;DHT22;11050;52.222;20.916;2022-12-29T18:10:26;9.00;99.90
21778;DHT22;11050;52.222;20.916;2022-12-29T18:12:54;8.90;99.90
21778;DHT22;11050;52.222;20.916;2022-12-29T18:15:25;8.90;99.90
21778;DHT22;11050;52.222;20.916;2022-12-29T18:18:01;8.90;99.90